sensor_id;sensor_type;location;lat;lon;timestamp;pressure;altitude;pressure_sealevel;temperature;humidity
77975;BME280;67164;51.202;0.278;2024-03-08T00:01:45;101055.38;;;22.15;36.20
77975;BME280;67164;51.202;0.278;2024-03-08T00:04:10;101056.67;;;22.40;36.36
77975;BME280;67164;51.202;0.278;2024-03-08T00:06:36;101056.53;;;22.12;36.40
77975;BME280;67164;51.202;0.278;2024-03-08T00:09:02;101050.41;;;22.06;36.44
77975;BME280;67164;51.202;0.278;2024-03-08T00:11:27;101049.82;;;21.90;36.31
77975;BME280;67164;51.202;0.278;2024-03-08T00:13:53;101048.50;;;22.13;36.23
77975;BME280;67164;51.202;0.278;2024-03-08T00:16:18;101047.51;;;22.12;36.25
77975;BME280;67164;51.202;0.278;2024-03-08T00:18:43;101041.66;;;22.37;36.14
77975;BME280;67164;51.202;0.278;2024-03-08T00:21:09;101039.84;;;22.06;36.14
77975;BME280;67164;51.202;0.278;2024-03-08T00:23:34;101034.41;;;22.02;36.16
77975;BME280;67164;51.202;0.278;2024-03-08T00:25:59;101023.66;;;22.26;36.14
77975;BME280;67164;51.202;0.278;2024-03-08T00:28:25;101019.17;;;21.74;36.12
77975;BME280;67164;51.202;0.278;2024-03-08T00:30:50;101016.88;;;22.07;36.28
77975;BME280;67164;51.202;0.278;2024-03-08T00:33:15;101016.72;;;21.68;36.13
77975;BME280;67164;51.202;0.278;2024-03-08T00:35:40;101017.78;;;21.84;36.12
77975;BME280;67164;51.202;0.278;2024-03-08T00:38:06;101012.79;;;21.58;36.13
77975;BME280;67164;51.202;0.278;2024-03-08T00:40:31;101009.39;;;21.71;36.21
77975;BME280;67164;51.202;0.278;2024-03-08T00:42:57;101006.19;;;21.92;36.17
77975;BME280;67164;51.202;0.278;2024-03-08T00:45:23;101005.08;;;21.70;36.12
77975;BME280;67164;51.202;0.278;2024-03-08T00:47:48;101002.70;;;21.88;36.22
77975;BME280;67164;51.202;0.278;2024-03-08T00:50:14;101003.13;;;21.63;36.17
77975;BME280;67164;51.202;0.278;2024-03-08T00:52:40;101003.73;;;21.79;36.24
77975;BME280;67164;51.202;0.278;2024-03-08T00:55:05;100999.27;;;21.77;36.24
77975;BME280;67164;51.202;0.278;2024-03-08T00:57:30;100995.41;;;21.79;36.21
77975;BME280;67164;51.202;0.278;2024-03-08T00:59:56;100998.71;;;21.80;36.13
77975;BME280;67164;51.202;0.278;2024-03-08T01:02:22;100996.36;;;21.77;36.15
77975;BME280;67164;51.202;0.278;2024-03-08T01:04:47;100994.91;;;21.71;36.17
77975;BME280;67164;51.202;0.278;2024-03-08T01:07:12;100990.82;;;21.73;36.14
77975;BME280;67164;51.202;0.278;2024-03-08T01:09:38;100988.26;;;21.48;36.13
77975;BME280;67164;51.202;0.278;2024-03-08T01:12:04;100988.78;;;21.67;36.19
77975;BME280;67164;51.202;0.278;2024-03-08T01:14:29;100983.88;;;21.39;36.20
77975;BME280;67164;51.202;0.278;2024-03-08T01:16:54;100982.17;;;21.64;36.13
77975;BME280;67164;51.202;0.278;2024-03-08T01:19:19;100976.97;;;21.63;36.11
77975;BME280;67164;51.202;0.278;2024-03-08T01:21:45;100974.81;;;21.36;36.14
77975;BME280;67164;51.202;0.278;2024-03-08T01:24:10;100971.54;;;21.57;36.13
77975;BME280;67164;51.202;0.278;2024-03-08T01:26:35;100969.19;;;21.59;36.11
77975;BME280;67164;51.202;0.278;2024-03-08T01:29:01;100965.37;;;21.63;35.99
77975;BME280;67164;51.202;0.278;2024-03-08T01:31:26;100961.50;;;21.56;36.09
77975;BME280;67164;51.202;0.278;2024-03-08T01:33:52;100963.24;;;21.50;36.10
77975;BME280;67164;51.202;0.278;2024-03-08T01:36:18;100960.33;;;21.26;36.08
77975;BME280;67164;51.202;0.278;2024-03-08T01:38:43;100954.22;;;21.56;36.02
77975;BME280;67164;51.202;0.278;2024-03-08T01:41:08;100951.30;;;21.53;36.01
77975;BME280;67164;51.202;0.278;2024-03-08T01:43:33;100950.74;;;21.50;36.06
77975;BME280;67164;51.202;0.278;2024-03-08T01:45:59;100948.65;;;21.53;36.02
77975;BME280;67164;51.202;0.278;2024-03-08T01:48:25;100946.11;;;21.51;36.02
77975;BME280;67164;51.202;0.278;2024-03-08T01:50:52;100941.29;;;21.49;36.13
77975;BME280;67164;51.202;0.278;2024-03-08T01:53:17;100938.19;;;21.48;36.07
77975;BME280;67164;51.202;0.278;2024-03-08T01:55:42;100937.25;;;21.46;36.03
77975;BME280;67164;51.202;0.278;2024-03-08T01:58:10;100933.84;;;21.49;35.99
77975;BME280;67164;51.202;0.278;2024-03-08T02:00:32;100930.91;;;21.46;36.06
77975;BME280;67164;51.202;0.278;2024-03-08T02:02:58;100927.93;;;21.45;36.05
77975;BME280;67164;51.202;0.278;2024-03-08T02:05:23;100922.59;;;21.15;36.05
77975;BME280;67164;51.202;0.278;2024-03-08T02:07:49;100922.78;;;21.16;36.11
77975;BME280;67164;51.202;0.278;2024-03-08T02:10:15;100918.04;;;21.69;35.93
77975;BME280;67164;51.202;0.278;2024-03-08T02:12:40;100912.60;;;21.44;35.99
77975;BME280;67164;51.202;0.278;2024-03-08T02:15:06;100912.27;;;21.67;35.94
77975;BME280;67164;51.202;0.278;2024-03-08T02:17:31;100908.66;;;21.16;35.98
77975;BME280;67164;51.202;0.278;2024-03-08T02:19:56;100905.28;;;21.38;35.95
77975;BME280;67164;51.202;0.278;2024-03-08T02:22:22;100898.59;;;21.60;35.98
77975;BME280;67164;51.202;0.278;2024-03-08T02:24:47;100892.20;;;21.36;35.96
77975;BME280;67164;51.202;0.278;2024-03-08T02:27:12;100890.07;;;21.38;35.98
77975;BME280;67164;51.202;0.278;2024-03-08T02:29:37;100882.65;;;21.38;35.97
77975;BME280;67164;51.202;0.278;2024-03-08T02:32:03;100878.58;;;21.59;35.90
77975;BME280;67164;51.202;0.278;2024-03-08T02:34:28;100873.71;;;21.40;35.88
77975;BME280;67164;51.202;0.278;2024-03-08T02:36:54;100870.62;;;21.36;35.92
77975;BME280;67164;51.202;0.278;2024-03-08T02:39:20;100866.91;;;21.29;35.89
77975;BME280;67164;51.202;0.278;2024-03-08T02:41:45;100865.39;;;21.20;36.06
77975;BME280;67164;51.202;0.278;2024-03-08T02:44:10;100862.25;;;21.45;36.02
77975;BME280;67164;51.202;0.278;2024-03-08T02:46:36;100856.64;;;21.43;35.97
77975;BME280;67164;51.202;0.278;2024-03-08T02:49:01;100850.87;;;21.20;35.99
77975;BME280;67164;51.202;0.278;2024-03-08T02:51:27;100849.23;;;21.22;35.94
77975;BME280;67164;51.202;0.278;2024-03-08T02:53:52;100851.42;;;21.39;35.91
77975;BME280;67164;51.202;0.278;2024-03-08T02:56:17;100847.78;;;21.17;36.01
77975;BME280;67164;51.202;0.278;2024-03-08T02:58:43;100845.24;;;21.19;35.91
77975;BME280;67164;51.202;0.278;2024-03-08T03:01:08;100843.62;;;21.18;35.99
77975;BME280;67164;51.202;0.278;2024-03-08T03:03:34;100843.46;;;21.13;35.90
77975;BME280;67164;51.202;0.278;2024-03-08T03:05:59;100844.02;;;21.03;35.89
77975;BME280;67164;51.202;0.278;2024-03-08T03:08:24;100837.99;;;21.08;35.80
77975;BME280;67164;51.202;0.278;2024-03-08T03:10:50;100835.11;;;21.00;35.83
77975;BME280;67164;51.202;0.278;2024-03-08T03:13:15;100833.73;;;21.30;36.00
77975;BME280;67164;51.202;0.278;2024-03-08T03:15:41;100829.77;;;21.51;35.99
77975;BME280;67164;51.202;0.278;2024-03-08T03:18:06;100828.59;;;21.26;35.79
77975;BME280;67164;51.202;0.278;2024-03-08T03:20:32;100828.62;;;21.24;35.94
77975;BME280;67164;51.202;0.278;2024-03-08T03:22:57;100824.65;;;20.95;35.98
77975;BME280;67164;51.202;0.278;2024-03-08T03:25:22;100821.37;;;21.09;35.69
77975;BME280;67164;51.202;0.278;2024-03-08T03:27:48;100815.94;;;21.18;35.93
77975;BME280;67164;51.202;0.278;2024-03-08T03:30:13;100813.68;;;21.32;35.96
77975;BME280;67164;51.202;0.278;2024-03-08T03:32:39;100813.11;;;21.04;35.97
77975;BME280;67164;51.202;0.278;2024-03-08T03:35:05;100809.00;;;20.92;35.83
77975;BME280;67164;51.202;0.278;2024-03-08T03:37:30;100801.98;;;20.73;35.57
77975;BME280;67164;51.202;0.278;2024-03-08T03:39:55;100800.17;;;21.30;35.69
77975;BME280;67164;51.202;0.278;2024-03-08T03:42:20;100794.91;;;20.87;35.67
77975;BME280;67164;51.202;0.278;2024-03-08T03:44:46;100791.63;;;20.96;35.72
77975;BME280;67164;51.202;0.278;2024-03-08T03:47:10;100787.19;;;21.10;35.61
77975;BME280;67164;51.202;0.278;2024-03-08T03:49:35;100785.67;;;21.12;35.46
77975;BME280;67164;51.202;0.278;2024-03-08T03:52:01;100784.22;;;21.13;35.58
77975;BME280;67164;51.202;0.278;2024-03-08T03:54:26;100778.31;;;20.85;35.53
77975;BME280;67164;51.202;0.278;2024-03-08T03:56:52;100779.21;;;20.85;35.52
77975;BME280;67164;51.202;0.278;2024-03-08T03:59:17;100775.95;;;20.75;35.48
77975;BME280;67164;51.202;0.278;2024-03-08T04:01:43;100773.20;;;21.00;35.40
77975;BME280;67164;51.202;0.278;2024-03-08T04:04:08;100771.36;;;20.97;35.50
77975;BME280;67164;51.202;0.278;2024-03-08T04:06:33;100771.49;;;21.00;35.63
77975;BME280;67164;51.202;0.278;2024-03-08T04:08:59;100764.19;;;20.92;35.52
77975;BME280;67164;51.202;0.278;2024-03-08T04:11:24;100764.03;;;20.49;35.36
77975;BME280;67164;51.202;0.278;2024-03-08T04:13:50;100762.00;;;20.74;35.31
77975;BME280;67164;51.202;0.278;2024-03-08T04:16:16;100752.24;;;21.10;35.30
77975;BME280;67164;51.202;0.278;2024-03-08T04:18:41;100750.70;;;21.05;35.31
77975;BME280;67164;51.202;0.278;2024-03-08T04:21:06;100745.31;;;20.91;35.33
77975;BME280;67164;51.202;0.278;2024-03-08T04:23:31;100740.69;;;20.87;35.27
77975;BME280;67164;51.202;0.278;2024-03-08T04:25:57;100735.61;;;20.76;35.38
77975;BME280;67164;51.202;0.278;2024-03-08T04:28:23;100729.28;;;20.59;35.37
77975;BME280;67164;51.202;0.278;2024-03-08T04:30:47;100727.63;;;20.74;35.25
77975;BME280;67164;51.202;0.278;2024-03-08T04:33:13;100723.96;;;20.86;35.26
77975;BME280;67164;51.202;0.278;2024-03-08T04:35:38;100723.35;;;20.61;35.25
77975;BME280;67164;51.202;0.278;2024-03-08T04:38:03;100719.41;;;20.80;35.26
77975;BME280;67164;51.202;0.278;2024-03-08T04:40:28;100714.64;;;20.80;35.31
77975;BME280;67164;51.202;0.278;2024-03-08T04:42:54;100712.76;;;20.74;35.27
77975;BME280;67164;51.202;0.278;2024-03-08T04:45:20;100710.95;;;20.76;35.14
77975;BME280;67164;51.202;0.278;2024-03-08T04:47:45;100711.45;;;20.69;35.29
77975;BME280;67164;51.202;0.278;2024-03-08T04:50:10;100707.31;;;20.92;35.23
77975;BME280;67164;51.202;0.278;2024-03-08T04:52:35;100708.68;;;20.60;35.08
77975;BME280;67164;51.202;0.278;2024-03-08T04:55:01;100709.65;;;20.55;35.15
77975;BME280;67164;51.202;0.278;2024-03-08T04:57:27;100709.75;;;20.61;35.12
77975;BME280;67164;51.202;0.278;2024-03-08T04:59:52;100708.65;;;20.63;34.99
77975;BME280;67164;51.202;0.278;2024-03-08T05:02:18;100707.42;;;20.65;35.15
77975;BME280;67164;51.202;0.278;2024-03-08T05:04:43;100699.54;;;20.52;35.20
77975;BME280;67164;51.202;0.278;2024-03-08T05:07:09;100697.16;;;20.58;35.15
77975;BME280;67164;51.202;0.278;2024-03-08T05:09:34;100694.10;;;20.52;35.08
77975;BME280;67164;51.202;0.278;2024-03-08T05:11:59;100694.26;;;20.42;35.18
77975;BME280;67164;51.202;0.278;2024-03-08T05:14:25;100690.72;;;20.52;35.01
77975;BME280;67164;51.202;0.278;2024-03-08T05:16:50;100691.66;;;20.54;35.03
77975;BME280;67164;51.202;0.278;2024-03-08T05:19:16;100688.94;;;20.58;34.98
77975;BME280;67164;51.202;0.278;2024-03-08T05:21:41;100687.74;;;20.58;34.98
77975;BME280;67164;51.202;0.278;2024-03-08T05:24:06;100685.66;;;20.48;34.90
77975;BME280;67164;51.202;0.278;2024-03-08T05:26:32;100685.64;;;20.55;34.98
77975;BME280;67164;51.202;0.278;2024-03-08T05:28:57;100680.43;;;20.47;34.94
77975;BME280;67164;51.202;0.278;2024-03-08T05:31:23;100675.03;;;20.24;35.10
77975;BME280;67164;51.202;0.278;2024-03-08T05:33:49;100670.10;;;20.50;35.07
77975;BME280;67164;51.202;0.278;2024-03-08T05:36:14;100665.24;;;20.76;34.98
77975;BME280;67164;51.202;0.278;2024-03-08T05:38:39;100661.91;;;20.48;34.77
77975;BME280;67164;51.202;0.278;2024-03-08T05:41:05;100661.37;;;20.52;34.91
77975;BME280;67164;51.202;0.278;2024-03-08T05:43:30;100656.28;;;20.58;34.74
77975;BME280;67164;51.202;0.278;2024-03-08T05:45:56;100655.38;;;20.28;34.90
77975;BME280;67164;51.202;0.278;2024-03-08T05:48:22;100659.26;;;20.69;34.77
77975;BME280;67164;51.202;0.278;2024-03-08T05:50:46;100655.69;;;20.53;34.69
77975;BME280;67164;51.202;0.278;2024-03-08T05:53:12;100650.41;;;20.45;34.85
77975;BME280;67164;51.202;0.278;2024-03-08T05:55:38;100648.81;;;20.37;34.91
77975;BME280;67164;51.202;0.278;2024-03-08T05:58:03;100647.43;;;20.51;34.71
77975;BME280;67164;51.202;0.278;2024-03-08T06:00:28;100650.44;;;20.41;34.72
77975;BME280;67164;51.202;0.278;2024-03-08T06:02:53;100646.15;;;20.47;34.80
77975;BME280;67164;51.202;0.278;2024-03-08T06:05:19;100643.76;;;20.33;34.92
77975;BME280;67164;51.202;0.278;2024-03-08T06:07:45;100637.14;;;20.20;34.84
77975;BME280;67164;51.202;0.278;2024-03-08T06:10:11;100633.25;;;20.50;34.99
77975;BME280;67164;51.202;0.278;2024-03-08T06:12:36;100635.91;;;20.35;34.83
77975;BME280;67164;51.202;0.278;2024-03-08T06:15:02;100631.63;;;20.20;35.02
77975;BME280;67164;51.202;0.278;2024-03-08T06:17:27;100627.40;;;20.16;35.06
77975;BME280;67164;51.202;0.278;2024-03-08T06:19:52;100627.71;;;20.20;34.89
77975;BME280;67164;51.202;0.278;2024-03-08T06:22:17;100628.60;;;20.12;34.92
77975;BME280;67164;51.202;0.278;2024-03-08T06:24:43;100631.70;;;20.36;34.95
77975;BME280;67164;51.202;0.278;2024-03-08T06:27:09;100630.49;;;20.14;34.96
77975;BME280;67164;51.202;0.278;2024-03-08T06:29:34;100626.64;;;20.11;35.07
77975;BME280;67164;51.202;0.278;2024-03-08T06:32:00;100624.42;;;20.20;34.98
77975;BME280;67164;51.202;0.278;2024-03-08T06:34:25;100624.94;;;19.88;35.03
77975;BME280;67164;51.202;0.278;2024-03-08T06:36:51;100629.12;;;20.20;34.74
77975;BME280;67164;51.202;0.278;2024-03-08T06:39:16;100631.73;;;20.46;34.86
77975;BME280;67164;51.202;0.278;2024-03-08T06:41:42;100631.73;;;20.10;34.92
77975;BME280;67164;51.202;0.278;2024-03-08T06:44:07;100633.14;;;20.40;35.06
77975;BME280;67164;51.202;0.278;2024-03-08T06:46:33;100634.42;;;20.09;35.05
77975;BME280;67164;51.202;0.278;2024-03-08T06:48:59;100632.66;;;20.25;34.94
77975;BME280;67164;51.202;0.278;2024-03-08T06:51:24;100635.08;;;20.04;34.85
77975;BME280;67164;51.202;0.278;2024-03-08T06:53:49;100629.74;;;20.30;34.79
77975;BME280;67164;51.202;0.278;2024-03-08T06:56:15;100625.84;;;20.24;34.89
77975;BME280;67164;51.202;0.278;2024-03-08T06:58:40;100620.16;;;20.07;34.95
77975;BME280;67164;51.202;0.278;2024-03-08T07:01:05;100622.22;;;19.78;35.01
77975;BME280;67164;51.202;0.278;2024-03-08T07:03:31;100620.13;;;20.02;34.98
77975;BME280;67164;51.202;0.278;2024-03-08T07:05:57;100619.95;;;19.79;34.98
77975;BME280;67164;51.202;0.278;2024-03-08T07:08:23;100623.69;;;20.51;34.94
77975;BME280;67164;51.202;0.278;2024-03-08T07:10:48;100621.82;;;19.95;34.99
77975;BME280;67164;51.202;0.278;2024-03-08T07:13:13;100623.33;;;20.37;34.99
77975;BME280;67164;51.202;0.278;2024-03-08T07:15:39;100623.88;;;19.86;35.00
77975;BME280;67164;51.202;0.278;2024-03-08T07:18:05;100629.64;;;20.12;34.91
77975;BME280;67164;51.202;0.278;2024-03-08T07:20:30;100629.88;;;19.99;35.11
77975;BME280;67164;51.202;0.278;2024-03-08T07:22:55;100629.38;;;19.88;35.01
77975;BME280;67164;51.202;0.278;2024-03-08T07:25:20;100631.24;;;19.90;35.08
77975;BME280;67164;51.202;0.278;2024-03-08T07:27:46;100626.60;;;20.11;35.11
77975;BME280;67164;51.202;0.278;2024-03-08T07:30:11;100630.06;;;19.89;35.15
77975;BME280;67164;51.202;0.278;2024-03-08T07:32:36;100627.47;;;20.08;35.03
77975;BME280;67164;51.202;0.278;2024-03-08T07:35:02;100628.38;;;20.10;34.83
77975;BME280;67164;51.202;0.278;2024-03-08T07:37:27;100624.65;;;19.92;34.95
77975;BME280;67164;51.202;0.278;2024-03-08T07:39:52;100622.95;;;20.22;34.98
77975;BME280;67164;51.202;0.278;2024-03-08T07:42:17;100622.32;;;19.78;35.01
77975;BME280;67164;51.202;0.278;2024-03-08T07:44:43;100619.78;;;20.28;34.84
77975;BME280;67164;51.202;0.278;2024-03-08T07:47:09;100614.80;;;20.52;34.87
77975;BME280;67164;51.202;0.278;2024-03-08T07:49:34;100616.90;;;20.30;34.96
77975;BME280;67164;51.202;0.278;2024-03-08T07:52:00;100613.99;;;20.36;35.44
77975;BME280;67164;51.202;0.278;2024-03-08T07:54:25;100614.49;;;19.90;35.97
77975;BME280;67164;51.202;0.278;2024-03-08T07:56:51;100614.21;;;19.94;35.80
77975;BME280;67164;51.202;0.278;2024-03-08T07:59:16;100610.79;;;19.96;35.86
77975;BME280;67164;51.202;0.278;2024-03-08T08:01:42;100606.53;;;20.05;36.00
77975;BME280;67164;51.202;0.278;2024-03-08T08:04:07;100605.53;;;19.72;36.22
77975;BME280;67164;51.202;0.278;2024-03-08T08:06:32;100600.87;;;20.04;36.47
77975;BME280;67164;51.202;0.278;2024-03-08T08:08:58;100603.28;;;19.84;36.79
77975;BME280;67164;51.202;0.278;2024-03-08T08:11:26;100597.08;;;19.87;36.96
77975;BME280;67164;51.202;0.278;2024-03-08T08:13:48;100595.88;;;20.03;37.31
77975;BME280;67164;51.202;0.278;2024-03-08T08:16:14;100589.65;;;20.17;37.77
77975;BME280;67164;51.202;0.278;2024-03-08T08:18:40;100587.08;;;19.88;37.83
77975;BME280;67164;51.202;0.278;2024-03-08T08:21:05;100584.07;;;19.67;38.27
77975;BME280;67164;51.202;0.278;2024-03-08T08:23:30;100587.64;;;19.61;38.23
77975;BME280;67164;51.202;0.278;2024-03-08T08:25:56;100582.75;;;20.28;37.85
77975;BME280;67164;51.202;0.278;2024-03-08T08:28:22;100580.87;;;20.38;37.58
77975;BME280;67164;51.202;0.278;2024-03-08T08:30:47;100574.13;;;20.55;37.31
77975;BME280;67164;51.202;0.278;2024-03-08T08:33:12;100574.06;;;20.70;37.11
77975;BME280;67164;51.202;0.278;2024-03-08T08:35:43;100567.06;;;20.38;37.28
77975;BME280;67164;51.202;0.278;2024-03-08T08:40:29;100559.23;;;20.30;37.19
77975;BME280;67164;51.202;0.278;2024-03-08T08:42:54;100555.13;;;20.31;37.16
77975;BME280;67164;51.202;0.278;2024-03-08T08:45:27;100552.71;;;20.48;36.96
77975;BME280;67164;51.202;0.278;2024-03-08T08:47:50;100549.88;;;20.56;36.86
77975;BME280;67164;51.202;0.278;2024-03-08T08:50:15;100543.26;;;20.82;36.53
77975;BME280;67164;51.202;0.278;2024-03-08T08:57:27;100540.23;;;20.56;36.26
77975;BME280;67164;51.202;0.278;2024-03-08T08:59:53;100542.47;;;20.70;36.42
77975;BME280;67164;51.202;0.278;2024-03-08T09:02:18;100545.53;;;20.99;36.31
77975;BME280;67164;51.202;0.278;2024-03-08T09:04:43;100542.01;;;20.69;36.27
77975;BME280;67164;51.202;0.278;2024-03-08T09:07:09;100541.01;;;20.92;36.21
77975;BME280;67164;51.202;0.278;2024-03-08T09:09:34;100531.62;;;20.60;36.24
77975;BME280;67164;51.202;0.278;2024-03-08T09:11:59;100532.11;;;20.94;36.10
77975;BME280;67164;51.202;0.278;2024-03-08T09:14:26;100526.47;;;20.83;36.20
77975;BME280;67164;51.202;0.278;2024-03-08T09:16:51;100523.42;;;20.94;36.08
77975;BME280;67164;51.202;0.278;2024-03-08T09:19:16;100516.34;;;20.87;36.19
77975;BME280;67164;51.202;0.278;2024-03-08T09:21:42;100511.26;;;20.78;36.24
77975;BME280;67164;51.202;0.278;2024-03-08T09:24:07;100503.47;;;20.95;36.10
77975;BME280;67164;51.202;0.278;2024-03-08T09:26:33;100499.78;;;20.89;36.13
77975;BME280;67164;51.202;0.278;2024-03-08T09:28:58;100492.28;;;20.67;36.39
77975;BME280;67164;51.202;0.278;2024-03-08T09:31:24;100492.86;;;21.07;36.28
77975;BME280;67164;51.202;0.278;2024-03-08T09:33:49;100486.62;;;20.82;36.35
77975;BME280;67164;51.202;0.278;2024-03-08T09:36:15;100482.46;;;20.85;36.38
77975;BME280;67164;51.202;0.278;2024-03-08T09:38:41;100481.32;;;20.53;36.55
77975;BME280;67164;51.202;0.278;2024-03-08T09:41:06;100477.87;;;20.91;36.46
77975;BME280;67164;51.202;0.278;2024-03-08T09:43:32;100477.77;;;20.64;36.53
77975;BME280;67164;51.202;0.278;2024-03-08T09:45:57;100474.55;;;20.79;36.40
77975;BME280;67164;51.202;0.278;2024-03-08T09:48:23;100464.72;;;20.79;36.45
77975;BME280;67164;51.202;0.278;2024-03-08T09:50:48;100461.59;;;20.91;36.33
77975;BME280;67164;51.202;0.278;2024-03-08T09:53:14;100458.12;;;21.02;36.46
77975;BME280;67164;51.202;0.278;2024-03-08T09:55:39;100456.02;;;20.77;36.62
77975;BME280;67164;51.202;0.278;2024-03-08T09:58:06;100450.29;;;20.66;36.73
77975;BME280;67164;51.202;0.278;2024-03-08T10:00:31;100449.20;;;20.71;36.74
77975;BME280;67164;51.202;0.278;2024-03-08T10:03:01;100446.26;;;20.84;37.01
77975;BME280;67164;51.202;0.278;2024-03-08T10:05:22;100442.56;;;20.68;37.04
77975;BME280;67164;51.202;0.278;2024-03-08T10:07:48;100438.03;;;21.22;36.70
77975;BME280;67164;51.202;0.278;2024-03-08T10:10:13;100431.25;;;21.02;36.63
77975;BME280;67164;51.202;0.278;2024-03-08T10:12:38;100426.17;;;21.12;36.53
77975;BME280;67164;51.202;0.278;2024-03-08T10:15:06;100421.85;;;21.14;36.46
77975;BME280;67164;51.202;0.278;2024-03-08T10:17:30;100413.08;;;21.01;36.37
77975;BME280;67164;51.202;0.278;2024-03-08T10:19:55;100406.71;;;20.99;36.41
77975;BME280;67164;51.202;0.278;2024-03-08T10:22:20;100407.74;;;20.92;36.44
77975;BME280;67164;51.202;0.278;2024-03-08T10:24:46;100398.78;;;20.83;36.32
77975;BME280;67164;51.202;0.278;2024-03-08T10:27:12;100390.40;;;21.01;36.38
77975;BME280;67164;51.202;0.278;2024-03-08T10:29:37;100387.48;;;21.39;36.23
77975;BME280;67164;51.202;0.278;2024-03-08T10:32:02;100380.92;;;21.35;36.26
77975;BME280;67164;51.202;0.278;2024-03-08T10:34:27;100374.53;;;20.98;36.19
77975;BME280;67164;51.202;0.278;2024-03-08T10:36:53;100368.63;;;21.41;36.28
77975;BME280;67164;51.202;0.278;2024-03-08T10:39:22;100365.59;;;21.44;36.30
77975;BME280;67164;51.202;0.278;2024-03-08T10:41:46;100358.63;;;20.97;36.27
77975;BME280;67164;51.202;0.278;2024-03-08T10:44:17;100349.41;;;20.89;36.36
77975;BME280;67164;51.202;0.278;2024-03-08T10:46:44;100347.41;;;21.12;36.35
77975;BME280;67164;51.202;0.278;2024-03-08T10:49:01;100341.83;;;21.37;36.32
77975;BME280;67164;51.202;0.278;2024-03-08T10:51:26;100336.64;;;20.94;36.28
77975;BME280;67164;51.202;0.278;2024-03-08T10:53:52;100333.18;;;21.13;36.30
77975;BME280;67164;51.202;0.278;2024-03-08T10:56:17;100318.87;;;21.21;36.12
77975;BME280;67164;51.202;0.278;2024-03-08T10:58:42;100316.50;;;21.40;35.90
77975;BME280;67164;51.202;0.278;2024-03-08T11:01:07;100308.57;;;21.63;35.60
77975;BME280;67164;51.202;0.278;2024-03-08T11:03:45;100316.51;;;21.02;35.92
77975;BME280;67164;51.202;0.278;2024-03-08T11:05:58;100316.08;;;21.01;36.06
77975;BME280;67164;51.202;0.278;2024-03-08T11:08:24;100320.32;;;21.36;35.92
77975;BME280;67164;51.202;0.278;2024-03-08T11:10:50;100319.02;;;20.97;36.10
77975;BME280;67164;51.202;0.278;2024-03-08T11:15:42;100315.13;;;21.03;36.04
77975;BME280;67164;51.202;0.278;2024-03-08T11:18:06;100314.87;;;21.07;36.04
77975;BME280;67164;51.202;0.278;2024-03-08T11:20:32;100312.50;;;21.15;35.96
77975;BME280;67164;51.202;0.278;2024-03-08T11:23:02;100303.96;;;21.44;35.92
77975;BME280;67164;51.202;0.278;2024-03-08T11:25:33;100300.13;;;21.48;35.89
77975;BME280;67164;51.202;0.278;2024-03-08T11:27:53;100298.24;;;21.32;36.02
77975;BME280;67164;51.202;0.278;2024-03-08T11:30:21;100299.96;;;21.59;35.77
77975;BME280;67164;51.202;0.278;2024-03-08T11:32:45;100292.99;;;21.35;36.06
77975;BME280;67164;51.202;0.278;2024-03-08T11:35:07;100289.31;;;21.11;36.07
77975;BME280;67164;51.202;0.278;2024-03-08T11:37:33;100288.84;;;21.36;36.04
77975;BME280;67164;51.202;0.278;2024-03-08T11:39:56;100281.06;;;21.15;35.96
77975;BME280;67164;51.202;0.278;2024-03-08T11:42:21;100279.66;;;21.49;35.77
77975;BME280;67164;51.202;0.278;2024-03-08T11:44:47;100278.54;;;21.20;35.87
77975;BME280;67164;51.202;0.278;2024-03-08T11:47:13;100274.97;;;21.34;36.06
77975;BME280;67164;51.202;0.278;2024-03-08T11:49:38;100264.81;;;21.40;36.00
77975;BME280;67164;51.202;0.278;2024-03-08T11:52:04;100269.67;;;21.26;36.21
77975;BME280;67164;51.202;0.278;2024-03-08T11:54:29;100268.65;;;21.49;35.98
77975;BME280;67164;51.202;0.278;2024-03-08T11:56:57;100261.14;;;21.88;35.86
77975;BME280;67164;51.202;0.278;2024-03-08T11:59:20;100261.26;;;21.40;35.80
77975;BME280;67164;51.202;0.278;2024-03-08T12:01:58;100257.56;;;21.35;35.78
77975;BME280;67164;51.202;0.278;2024-03-08T12:04:12;100249.54;;;21.68;35.62
77975;BME280;67164;51.202;0.278;2024-03-08T12:06:37;100247.68;;;21.57;35.37
77975;BME280;67164;51.202;0.278;2024-03-08T12:09:02;100245.05;;;21.82;35.27
77975;BME280;67164;51.202;0.278;2024-03-08T12:11:28;100242.11;;;21.65;35.15
77975;BME280;67164;51.202;0.278;2024-03-08T12:13:53;100239.16;;;21.78;34.95
77975;BME280;67164;51.202;0.278;2024-03-08T12:16:19;100241.10;;;21.77;34.85
77975;BME280;67164;51.202;0.278;2024-03-08T12:18:44;100237.49;;;21.83;34.68
77975;BME280;67164;51.202;0.278;2024-03-08T12:21:11;100236.17;;;21.91;34.76
77975;BME280;67164;51.202;0.278;2024-03-08T12:23:36;100225.27;;;21.83;34.62
77975;BME280;67164;51.202;0.278;2024-03-08T12:26:09;100226.23;;;21.68;34.69
77975;BME280;67164;51.202;0.278;2024-03-08T12:28:26;100221.84;;;21.71;34.65
77975;BME280;67164;51.202;0.278;2024-03-08T12:30:52;100218.72;;;21.98;34.59
77975;BME280;67164;51.202;0.278;2024-03-08T12:33:18;100216.07;;;21.72;34.56
77975;BME280;67164;51.202;0.278;2024-03-08T12:35:51;100211.44;;;21.96;34.55
77975;BME280;67164;51.202;0.278;2024-03-08T12:38:08;100211.18;;;22.03;34.54
77975;BME280;67164;51.202;0.278;2024-03-08T12:40:34;100210.82;;;22.11;34.40
77975;BME280;67164;51.202;0.278;2024-03-08T12:43:00;100204.09;;;22.11;34.36
77975;BME280;67164;51.202;0.278;2024-03-08T12:45:25;100195.77;;;21.82;34.37
77975;BME280;67164;51.202;0.278;2024-03-08T12:47:51;100199.80;;;22.02;34.33
77975;BME280;67164;51.202;0.278;2024-03-08T12:50:16;100192.98;;;21.93;34.41